< < Back
Terminal Aerodrome Forecast


Current Version              Previous Versions:   1  2  3  4  5  6  7  8  9  

Terminal Aerodrome Forecast

435
FTUS44 KMOB 201100
TAFMOB
TAF
KMOB 201121Z 2012/2112 00000KT P6SM FEW015 SCT060 BKN250
     FM201500 23006KT P6SM VCTS SCT035CB SCT250
     FM210000 21006KT P6SM FEW250=

Latest METAR

047
SAUS80 KWBC 210200
MTRMOB
METAR KMOB 210156Z 21005KT 10SM FEW200 27/24 A3009 RMK AO2 SLP185
T02720244


USA.gov is the U.S. government's official web portal to all federal, state and local government web resources and services.